Terminal Aerodrome Forecast
Issued by NWS Louisville, KY

Home | Current Version | Previous Version | Text Only | Print | Product List | Glossary On
Versions: 1 2 3 4 5 6 7 8 9 10 11 12 13
443
FTUS43 KLMK 171125
TAFBWG
TAF
KBWG 171125Z 1712/1812 VRB03KT P6SM VCSH BKN100
     FM171400 19004KT P6SM -SHRA OVC050
     FM172100 17005KT P6SM VCSH OVC025
     FM180100 VRB03KT 6SM -DZ BR OVC015
     FM180700 VRB03KT 5SM -DZ BR OVC008=

USA.gov is the U.S. government's official web portal to all federal, state and local government web resources and services.